Time;durP1;ratioP1;P1;durP2;ratioP2;P2;SDS_P1;SDS_P2;PMS_P1;PMS_P2;Temp;Humidity;BMP_temperature;BMP_pressure;BME280_temperature;BME280_humidity;BME280_pressure;Samples;Min_cycle;Max_cycle;Signal;HPM_P1;HPM_P2
2022/03/06 00:01:26;;;;;;;1.30;1.30;;;20.10;39.10;;;;;;5082512;28;43419;-64
2022/03/06 00:03:54;;;;;;;1.70;1.60;;;20.20;39.20;;;;;;5083380;27;43458;-63
2022/03/06 00:06:22;;;;;;;1.70;1.60;;;20.20;39.30;;;;;;5081012;27;43549;-64
2022/03/06 00:08:49;;;;;;;2.15;1.70;;;20.10;39.20;;;;;;5084675;27;43568;-64
2022/03/06 00:11:17;;;;;;;1.50;1.40;;;20.10;39.30;;;;;;5083452;27;43417;-63
2022/03/06 00:13:44;;;;;;;1.60;1.50;;;20.10;39.30;;;;;;5081202;28;43435;-63
2022/03/06 00:16:12;;;;;;;1.60;1.45;;;20.10;39.30;;;;;;5081436;28;43496;-64
2022/03/06 00:18:39;;;;;;;1.40;1.30;;;20.00;39.20;;;;;;5084021;27;43619;-64
2022/03/06 00:21:06;;;;;;;1.60;1.50;;;20.00;39.20;;;;;;5084176;27;43719;-64
2022/03/06 00:23:34;;;;;;;1.50;1.40;;;20.00;39.20;;;;;;5083014;28;43420;-64
2022/03/06 00:26:02;;;;;;;1.60;1.45;;;20.00;39.20;;;;;;5084486;28;43532;-64
2022/03/06 00:28:30;;;;;;;1.33;1.23;;;20.00;39.20;;;;;;5084469;27;43962;-63
2022/03/06 00:30:57;;;;;;;2.45;1.30;;;20.00;39.20;;;;;;5082418;28;43469;-64
2022/03/06 00:33:25;;;;;;;1.63;1.33;;;19.90;39.20;;;;;;5084545;28;43420;-64
2022/03/06 00:35:52;;;;;;;1.73;1.63;;;19.90;39.20;;;;;;5084099;27;43461;-64
2022/03/06 00:38:20;;;;;;;1.30;1.20;;;19.90;39.20;;;;;;5084018;27;44716;-64
2022/03/06 00:40:47;;;;;;;1.63;1.50;;;19.90;39.20;;;;;;5084025;27;43672;-63
2022/03/06 00:43:15;;;;;;;1.60;1.50;;;19.90;39.20;;;;;;5084129;28;43391;-64
2022/03/06 00:45:45;;;;;;;1.65;1.50;;;19.90;39.20;;;;;;5082849;28;43612;-63
2022/03/06 00:48:12;;;;;;;1.60;1.50;;;19.90;39.20;;;;;;5084088;27;43786;-64
2022/03/06 00:50:40;;;;;;;1.40;1.30;;;19.80;39.10;;;;;;5084193;28;43406;-63
2022/03/06 00:53:08;;;;;;;1.30;1.08;;;19.80;39.20;;;;;;5084613;27;43450;-63
2022/03/06 00:55:37;;;;;;;1.65;1.40;;;19.80;39.30;;;;;;5080959;28;44158;-63
2022/03/06 00:58:07;;;;;;;1.65;1.33;;;19.80;39.30;;;;;;5080725;27;43947;-64
2022/03/06 01:00:37;;;;;;;1.73;1.30;;;19.80;39.30;;;;;;5084095;27;43495;-63
2022/03/06 01:03:07;;;;;;;1.50;1.40;;;19.80;39.40;;;;;;5081966;28;43461;-64
2022/03/06 01:05:35;;;;;;;1.50;1.40;;;19.80;39.40;;;;;;5082308;28;43532;-64
2022/03/06 01:08:04;;;;;;;1.50;1.40;;;19.70;39.30;;;;;;5082627;28;44952;-64
2022/03/06 01:10:33;;;;;;;1.13;1.13;;;19.70;39.30;;;;;;5084065;28;43487;-64
2022/03/06 01:13:00;;;;;;;1.17;1.17;;;19.70;39.40;;;;;;5083010;27;43505;-64
2022/03/06 01:15:28;;;;;;;1.45;1.35;;;19.70;39.40;;;;;;5084052;27;43480;-64
2022/03/06 01:17:56;;;;;;;1.40;1.30;;;19.70;39.40;;;;;;5080356;28;43597;-64
2022/03/06 01:20:24;;;;;;;1.33;1.23;;;19.70;39.50;;;;;;5083055;27;43771;-64
2022/03/06 01:22:53;;;;;;;2.67;1.42;;;19.70;39.50;;;;;;5080077;27;43523;-64
2022/03/06 01:25:21;;;;;;;1.40;1.30;;;19.60;39.50;;;;;;5064816;28;43630;-63
2022/03/06 01:27:48;;;;;;;1.25;1.25;;;19.60;39.50;;;;;;5080251;27;43571;-63
2022/03/06 01:30:17;;;;;;;1.20;1.10;;;19.60;39.50;;;;;;5081731;28;44116;-64
2022/03/06 01:32:44;;;;;;;1.45;1.35;;;19.60;39.50;;;;;;5081807;28;43410;-64
2022/03/06 01:35:11;;;;;;;1.13;1.08;;;19.60;39.50;;;;;;5083017;27;43448;-64
2022/03/06 01:37:39;;;;;;;1.40;1.30;;;19.60;39.50;;;;;;5081983;28;43935;-65
2022/03/06 01:40:08;;;;;;;1.20;1.10;;;19.60;39.50;;;;;;5081671;28;43574;-63
2022/03/06 01:42:40;;;;;;;1.55;0.90;;;19.60;39.60;;;;;;5082820;27;43463;-63
2022/03/06 01:45:08;;;;;;;1.13;1.13;;;19.60;39.60;;;;;;5081413;28;43466;-64
2022/03/06 01:47:41;;;;;;;3.80;1.40;;;19.50;39.50;;;;;;5083064;27;43604;-64
2022/03/06 01:50:17;;;;;;;1.50;1.40;;;19.50;39.50;;;;;;5080160;28;43915;-64
2022/03/06 01:52:46;;;;;;;1.35;1.25;;;19.50;39.50;;;;;;5080158;28;43416;-64
2022/03/06 01:55:16;;;;;;;1.33;1.23;;;19.50;39.60;;;;;;5077980;28;43541;-64
2022/03/06 01:57:45;;;;;;;1.25;1.15;;;19.50;39.60;;;;;;5081891;28;43871;-63
2022/03/06 02:00:16;;;;;;;1.30;1.20;;;19.40;39.60;;;;;;5083126;27;43431;-63
2022/03/06 02:02:44;;;;;;;1.58;1.13;;;19.40;39.60;;;;;;5081946;27;43420;-64
2022/03/06 02:05:12;;;;;;;1.42;1.33;;;19.40;39.60;;;;;;5083395;27;43636;-64
2022/03/06 02:07:40;;;;;;;1.23;1.15;;;19.50;39.70;;;;;;5081135;28;43998;-64
2022/03/06 02:10:08;;;;;;;1.45;1.35;;;19.40;39.60;;;;;;5082852;27;43467;-63
2022/03/06 02:12:36;;;;;;;1.40;1.30;;;19.40;39.70;;;;;;5081274;28;43524;-64
2022/03/06 02:15:07;;;;;;;1.67;1.50;;;19.40;39.70;;;;;;5083502;27;43473;-64
2022/03/06 02:17:37;;;;;;;1.40;1.30;;;19.40;39.70;;;;;;5081584;28;44202;-65
2022/03/06 02:20:19;;;;;;;1.58;1.48;;;19.40;39.70;;;;;;5082136;27;43545;-64
2022/03/06 02:22:50;;;;;;;1.45;1.20;;;19.40;39.70;;;;;;5083060;27;43442;-63
2022/03/06 02:25:23;;;;;;;1.13;1.13;;;19.40;39.80;;;;;;5081357;28;43535;-63
2022/03/06 02:27:52;;;;;;;1.63;1.50;;;19.40;39.80;;;;;;5081268;28;44048;-64
2022/03/06 02:30:25;;;;;;;1.50;1.40;;;19.30;39.80;;;;;;5082217;27;43454;-64
2022/03/06 02:32:54;;;;;;;1.40;1.30;;;19.30;39.70;;;;;;5079737;28;43438;-64
2022/03/06 02:35:22;;;;;;;1.33;1.27;;;19.30;39.80;;;;;;5084671;28;43791;-64
2022/03/06 02:37:49;;;;;;;1.40;1.30;;;19.30;39.80;;;;;;5079048;28;43580;-64
2022/03/06 02:40:18;;;;;;;1.33;1.23;;;19.30;39.80;;;;;;5064520;28;44822;-64
2022/03/06 02:42:48;;;;;;;1.30;1.20;;;19.30;39.80;;;;;;5083073;28;43437;-64
2022/03/06 02:45:25;;;;;;;1.52;1.40;;;19.20;39.80;;;;;;5084240;28;43459;-63
2022/03/06 02:47:55;;;;;;;1.70;1.60;;;19.30;39.80;;;;;;5085588;28;44916;-64
2022/03/06 02:50:28;;;;;;;1.40;1.30;;;19.30;39.90;;;;;;5086071;28;43518;-64
2022/03/06 02:52:57;;;;;;;1.50;1.40;;;19.30;39.80;;;;;;5085981;27;43419;-63
2022/03/06 02:55:25;;;;;;;1.50;1.40;;;19.20;39.80;;;;;;5084372;27;43533;-64
2022/03/06 02:57:53;;;;;;;1.48;1.38;;;19.20;39.80;;;;;;5082711;28;44800;-63
2022/03/06 03:00:23;;;;;;;1.30;1.25;;;19.20;39.90;;;;;;5085697;28;43389;-64
2022/03/06 03:02:51;;;;;;;1.38;1.30;;;19.20;39.90;;;;;;5084715;27;43472;-64
2022/03/06 03:05:19;;;;;;;1.58;1.30;;;19.20;39.80;;;;;;5085371;28;43540;-63
2022/03/06 03:07:48;;;;;;;1.40;1.30;;;19.20;39.90;;;;;;5082084;27;43610;-63
2022/03/06 03:10:18;;;;;;;1.40;1.30;;;19.20;39.90;;;;;;5086165;27;43482;-64
2022/03/06 03:12:46;;;;;;;1.40;1.30;;;19.20;40.00;;;;;;5081970;28;43453;-64
2022/03/06 03:15:15;;;;;;;1.38;1.25;;;19.20;39.90;;;;;;5081537;28;43584;-64
2022/03/06 03:17:43;;;;;;;1.38;1.10;;;19.20;39.90;;;;;;5085236;27;43804;-64
2022/03/06 03:20:12;;;;;;;1.10;1.10;;;19.10;39.80;;;;;;5083404;28;43526;-64
2022/03/06 03:22:40;;;;;;;1.50;1.40;;;19.20;39.90;;;;;;5085441;28;44020;-64
2022/03/06 03:25:08;;;;;;;1.20;1.10;;;19.20;39.90;;;;;;5084379;27;43485;-63
2022/03/06 03:27:36;;;;;;;1.50;1.40;;;19.10;39.80;;;;;;5084376;28;44942;-64
2022/03/06 03:30:05;;;;;;;1.35;1.20;;;19.10;39.80;;;;;;5084880;27;43582;-64
2022/03/06 03:32:33;;;;;;;1.63;1.40;;;19.10;39.80;;;;;;5085290;28;43453;-64
2022/03/06 03:35:00;;;;;;;1.25;1.15;;;19.10;39.80;;;;;;5084830;27;43442;-64
2022/03/06 03:37:28;;;;;;;1.38;1.20;;;19.10;39.80;;;;;;5083845;28;44645;-64
2022/03/06 03:39:55;;;;;;;1.60;1.50;;;19.10;39.80;;;;;;5085204;27;43475;-64
2022/03/06 03:42:23;;;;;;;1.40;1.30;;;19.10;39.90;;;;;;5085053;27;43466;-64
2022/03/06 03:44:50;;;;;;;1.10;1.02;;;19.10;39.90;;;;;;5085186;27;43452;-64
2022/03/06 03:47:18;;;;;;;1.30;1.20;;;19.10;39.90;;;;;;5083024;28;46406;-64
2022/03/06 03:49:45;;;;;;;1.23;1.10;;;19.10;39.90;;;;;;5085354;28;43552;-63
2022/03/06 03:52:13;;;;;;;0.90;0.90;;;19.10;40.00;;;;;;5083987;28;43399;-64
2022/03/06 03:54:40;;;;;;;1.17;1.08;;;19.00;39.90;;;;;;5083154;28;43467;-64
2022/03/06 03:57:08;;;;;;;1.38;1.23;;;19.00;39.90;;;;;;5085262;27;43800;-63
2022/03/06 03:59:36;;;;;;;1.60;1.10;;;19.00;39.90;;;;;;5084771;27;43541;-64
2022/03/06 04:02:03;;;;;;;1.20;1.10;;;19.00;40.00;;;;;;5082576;28;43462;-63
2022/03/06 04:04:32;;;;;;;1.23;1.13;;;19.00;39.90;;;;;;5083506;28;43584;-63
2022/03/06 04:07:00;;;;;;;1.50;1.40;;;19.00;40.00;;;;;;5084550;27;44045;-64
2022/03/06 04:09:27;;;;;;;1.30;1.20;;;19.00;40.00;;;;;;5082903;28;43699;-63
2022/03/06 04:11:55;;;;;;;1.00;1.00;;;19.00;40.00;;;;;;5084544;27;43500;-64
2022/03/06 04:14:22;;;;;;;1.25;1.15;;;18.90;39.90;;;;;;5082789;28;43793;-63
2022/03/06 04:16:49;;;;;;;1.30;1.20;;;19.00;40.00;;;;;;5083916;28;45796;-64
2022/03/06 04:19:17;;;;;;;1.30;1.20;;;18.90;39.90;;;;;;5084197;27;43452;-64
2022/03/06 04:21:44;;;;;;;0.98;0.95;;;18.90;39.90;;;;;;5084482;27;43370;-64
2022/03/06 04:24:12;;;;;;;1.27;1.17;;;18.90;40.00;;;;;;5084400;27;43446;-64
2022/03/06 04:26:40;;;;;;;0.95;0.95;;;18.90;40.00;;;;;;5081617;27;43619;-64
2022/03/06 04:29:07;;;;;;;1.20;0.98;;;18.90;40.00;;;;;;5084597;27;43487;-64
2022/03/06 04:31:37;;;;;;;1.02;0.93;;;18.90;40.00;;;;;;5084018;28;43413;-64
2022/03/06 04:34:05;;;;;;;1.27;0.95;;;18.90;40.00;;;;;;5083028;28;43500;-63
2022/03/06 04:36:32;;;;;;;1.10;1.00;;;18.90;40.00;;;;;;5082833;28;44003;-63
2022/03/06 04:39:00;;;;;;;1.30;1.20;;;18.90;40.00;;;;;;5082915;28;43755;-63
2022/03/06 04:41:27;;;;;;;0.85;0.85;;;18.90;40.00;;;;;;5082928;28;43695;-64
2022/03/06 04:43:55;;;;;;;1.25;1.15;;;18.90;40.00;;;;;;5083817;27;43471;-63
2022/03/06 04:46:22;;;;;;;1.02;0.90;;;18.80;40.00;;;;;;5081159;28;43690;-63
2022/03/06 04:48:50;;;;;;;1.05;1.00;;;18.80;40.00;;;;;;5084254;27;43513;-64
2022/03/06 04:51:18;;;;;;;1.25;1.15;;;18.80;39.90;;;;;;5066403;28;43518;-63
2022/03/06 04:53:45;;;;;;;0.85;0.80;;;18.80;39.90;;;;;;5083268;28;43470;-63
2022/03/06 04:56:13;;;;;;;1.38;1.27;;;18.80;39.90;;;;;;5082925;27;44162;-64
2022/03/06 04:58:40;;;;;;;1.08;0.98;;;18.80;40.00;;;;;;5083957;27;43548;-64
2022/03/06 05:01:07;;;;;;;0.80;0.80;;;18.80;39.90;;;;;;5082534;28;43585;-64
2022/03/06 05:03:36;;;;;;;0.75;0.70;;;18.80;39.90;;;;;;5084057;28;43572;-63
2022/03/06 05:06:03;;;;;;;1.15;0.82;;;18.70;39.90;;;;;;5059804;28;43945;-64
2022/03/06 05:08:31;;;;;;;1.20;0.85;;;18.70;39.90;;;;;;5098061;27;43470;-63
2022/03/06 05:10:58;;;;;;;0.70;0.70;;;18.70;39.90;;;;;;5082283;28;43582;-64
2022/03/06 05:13:26;;;;;;;0.60;0.60;;;18.70;39.90;;;;;;5083522;27;44065;-64
2022/03/06 05:15:53;;;;;;;0.90;0.90;;;18.70;39.90;;;;;;5083237;27;44049;-63
2022/03/06 05:18:21;;;;;;;0.93;0.80;;;18.70;40.00;;;;;;5083375;28;43429;-63
2022/03/06 05:20:49;;;;;;;0.85;0.85;;;18.70;39.90;;;;;;5083355;27;43538;-64
2022/03/06 05:23:17;;;;;;;0.80;0.80;;;18.70;40.00;;;;;;5083618;27;43556;-63
2022/03/06 05:25:46;;;;;;;0.75;0.70;;;18.70;39.90;;;;;;5082026;28;44680;-64
2022/03/06 05:28:15;;;;;;;0.80;0.80;;;18.70;39.90;;;;;;5082132;28;44982;-63
2022/03/06 05:30:42;;;;;;;0.75;0.75;;;18.70;39.90;;;;;;5080740;28;43491;-63
2022/03/06 05:33:10;;;;;;;0.80;0.80;;;18.60;39.90;;;;;;5083752;27;43434;-63
2022/03/06 05:35:37;;;;;;;0.90;0.73;;;18.60;39.90;;;;;;5083228;27;44778;-64
2022/03/06 05:38:05;;;;;;;0.68;0.68;;;18.60;39.90;;;;;;5083404;27;43529;-63
2022/03/06 05:40:32;;;;;;;0.95;0.68;;;18.60;39.90;;;;;;5083309;27;43564;-63
2022/03/06 05:43:00;;;;;;;0.73;0.73;;;18.60;39.90;;;;;;5081669;28;43471;-64
2022/03/06 05:45:28;;;;;;;1.42;0.70;;;18.60;39.90;;;;;;5078351;28;45784;-63
2022/03/06 05:47:55;;;;;;;0.63;0.63;;;18.60;39.90;;;;;;5081315;28;45203;-64
2022/03/06 05:50:23;;;;;;;0.75;0.60;;;18.60;39.90;;;;;;5083124;27;43505;-63
2022/03/06 05:52:50;;;;;;;0.68;0.65;;;18.60;39.90;;;;;;5081870;28;43570;-64
2022/03/06 05:55:18;;;;;;;0.70;0.70;;;18.60;39.90;;;;;;5082477;27;43612;-63
2022/03/06 05:57:46;;;;;;;0.70;0.70;;;18.60;39.90;;;;;;5079986;27;43424;-64
2022/03/06 06:00:17;;;;;;;0.73;0.70;;;18.60;39.90;;;;;;5081365;28;43399;-64
2022/03/06 06:02:45;;;;;;;0.77;0.68;;;18.60;40.00;;;;;;5079284;28;43441;-64
2022/03/06 06:05:15;;;;;;;1.83;1.00;;;18.50;39.90;;;;;;5082791;27;43983;-64
2022/03/06 06:07:42;;;;;;;0.70;0.70;;;18.60;39.90;;;;;;5081388;27;43402;-64
2022/03/06 06:10:10;;;;;;;0.82;0.73;;;18.50;39.90;;;;;;5085898;27;43611;-64
2022/03/06 06:12:38;;;;;;;0.50;0.50;;;18.50;40.60;;;;;;5086402;27;43445;-63
2022/03/06 06:15:08;;;;;;;0.70;0.68;;;18.50;39.90;;;;;;5086417;27;43816;-64
2022/03/06 06:17:36;;;;;;;0.98;0.70;;;18.50;39.90;;;;;;5081748;27;43933;-63
2022/03/06 06:20:05;;;;;;;0.50;0.50;;;18.50;39.80;;;;;;5085775;27;43565;-64
2022/03/06 06:22:34;;;;;;;0.50;0.50;;;18.50;39.90;;;;;;5086353;27;43490;-63
2022/03/06 06:25:03;;;;;;;0.77;0.68;;;18.50;39.90;;;;;;5086376;27;43803;-64
2022/03/06 06:27:31;;;;;;;1.00;0.73;;;18.50;39.90;;;;;;5084918;28;43992;-63
2022/03/06 06:29:58;;;;;;;0.60;0.60;;;18.50;39.90;;;;;;5086248;27;43537;-64
2022/03/06 06:32:26;;;;;;;0.98;0.70;;;18.50;39.90;;;;;;5086245;27;43466;-64
2022/03/06 06:34:53;;;;;;;0.50;0.50;;;18.50;39.90;;;;;;5084701;28;44191;-63
2022/03/06 06:37:21;;;;;;;0.85;0.60;;;18.50;39.90;;;;;;5086177;27;43400;-63
2022/03/06 06:39:48;;;;;;;0.50;0.50;;;18.40;39.80;;;;;;5085843;27;43427;-63
2022/03/06 06:42:15;;;;;;;1.58;0.47;;;18.50;39.80;;;;;;5085975;27;43549;-63
2022/03/06 06:44:43;;;;;;;0.52;0.52;;;18.50;39.90;;;;;;5084574;28;45832;-64
2022/03/06 06:47:13;;;;;;;0.50;0.50;;;18.50;39.90;;;;;;5085765;28;43497;-63
2022/03/06 06:49:41;;;;;;;0.77;0.35;;;18.50;39.90;;;;;;5085679;28;43457;-63
2022/03/06 06:52:08;;;;;;;0.85;0.60;;;18.50;39.90;;;;;;5085654;28;43460;-63
2022/03/06 06:54:36;;;;;;;0.73;0.60;;;18.50;39.90;;;;;;5085124;27;44664;-63
2022/03/06 06:57:04;;;;;;;1.55;0.73;;;18.50;39.90;;;;;;5085936;28;43545;-64
2022/03/06 06:59:31;;;;;;;0.40;0.40;;;18.50;39.90;;;;;;5084104;28;43549;-63
2022/03/06 07:01:59;;;;;;;0.57;0.57;;;18.50;39.90;;;;;;5085099;27;43533;-63
2022/03/06 07:04:27;;;;;;;0.77;0.70;;;18.50;39.90;;;;;;5083767;28;44197;-63
2022/03/06 07:06:54;;;;;;;0.45;0.45;;;18.50;40.00;;;;;;5083805;28;43694;-64
2022/03/06 07:09:21;;;;;;;0.52;0.52;;;18.50;40.00;;;;;;5084198;28;43484;-64
2022/03/06 07:11:49;;;;;;;0.32;0.32;;;18.50;40.00;;;;;;5085922;27;43444;-63
2022/03/06 07:14:16;;;;;;;0.45;0.45;;;18.50;40.10;;;;;;5084936;27;44904;-64
2022/03/06 07:16:45;;;;;;;0.47;0.47;;;18.40;39.90;;;;;;5084890;27;44032;-63
2022/03/06 07:19:12;;;;;;;0.88;0.88;;;18.50;40.00;;;;;;5084591;27;44060;-63
2022/03/06 07:21:40;;;;;;;0.75;0.50;;;18.50;40.00;;;;;;5085783;27;43455;-63
2022/03/06 07:24:08;;;;;;;0.82;0.50;;;18.50;40.00;;;;;;5083027;28;44696;-63
2022/03/06 07:26:35;;;;;;;0.70;0.70;;;18.50;40.00;;;;;;5082169;27;43380;-63
2022/03/06 07:29:03;;;;;;;0.43;0.43;;;18.50;40.10;;;;;;5085779;28;43421;-64
2022/03/06 07:31:31;;;;;;;0.60;0.50;;;18.60;40.00;;;;;;5085147;27;43658;-63
2022/03/06 07:33:59;;;;;;;0.63;0.52;;;18.60;40.00;;;;;;5084351;28;44009;-64
2022/03/06 07:36:27;;;;;;;0.57;0.47;;;18.50;40.00;;;;;;5085286;27;43487;-64
2022/03/06 07:38:54;;;;;;;0.70;0.70;;;18.60;40.10;;;;;;5085345;27;43493;-64
2022/03/06 07:41:22;;;;;;;0.70;0.70;;;18.60;40.00;;;;;;5085211;27;43442;-64
2022/03/06 07:43:49;;;;;;;0.52;0.50;;;18.60;40.00;;;;;;5084377;27;43818;-63
2022/03/06 07:46:16;;;;;;;0.90;0.90;;;18.60;40.10;;;;;;5083314;28;43547;-63
2022/03/06 07:48:44;;;;;;;0.60;0.60;;;18.60;40.10;;;;;;5084997;28;43469;-63
2022/03/06 07:51:12;;;;;;;0.60;0.60;;;18.60;40.20;;;;;;5081185;28;44036;-64
2022/03/06 07:53:40;;;;;;;0.82;0.77;;;18.60;40.20;;;;;;5084583;28;44307;-63
2022/03/06 07:56:07;;;;;;;0.60;0.60;;;18.60;40.00;;;;;;5082991;28;43448;-63
2022/03/06 07:58:35;;;;;;;1.88;0.90;;;18.70;40.10;;;;;;5082683;28;43510;-63
2022/03/06 08:01:02;;;;;;;1.20;0.70;;;18.70;40.10;;;;;;5083448;28;43707;-63
2022/03/06 08:03:30;;;;;;;0.70;0.70;;;18.70;40.10;;;;;;5084757;27;44758;-64
2022/03/06 08:05:58;;;;;;;1.00;0.60;;;18.70;40.10;;;;;;5084390;27;43954;-64
2022/03/06 08:08:25;;;;;;;0.98;0.80;;;18.80;40.00;;;;;;5083666;28;43405;-63
2022/03/06 08:10:52;;;;;;;2.10;0.70;;;18.80;40.00;;;;;;5083443;28;43539;-63
2022/03/06 08:13:20;;;;;;;1.10;0.68;;;18.80;40.10;;;;;;5084110;27;44028;-63
2022/03/06 08:15:47;;;;;;;0.75;0.60;;;18.80;40.10;;;;;;5082968;28;43553;-62
2022/03/06 08:18:15;;;;;;;1.38;0.70;;;18.80;40.20;;;;;;5084572;27;43440;-62
2022/03/06 08:20:42;;;;;;;0.73;0.73;;;18.80;40.10;;;;;;5084735;28;43500;-63
2022/03/06 08:23:10;;;;;;;1.50;0.98;;;18.80;40.20;;;;;;5084236;27;43735;-62
2022/03/06 08:25:38;;;;;;;0.65;0.65;;;18.80;40.10;;;;;;5084295;27;43688;-63
2022/03/06 08:28:05;;;;;;;0.90;0.68;;;18.80;40.20;;;;;;5082189;27;43536;-63
2022/03/06 08:30:33;;;;;;;1.80;0.65;;;18.90;40.10;;;;;;5082643;28;43482;-63
2022/03/06 08:33:00;;;;;;;0.52;0.52;;;18.90;40.20;;;;;;5082103;28;44688;-62
2022/03/06 08:35:28;;;;;;;0.70;0.70;;;18.80;40.10;;;;;;5084007;27;43511;-63
2022/03/06 08:37:55;;;;;;;0.88;0.70;;;18.90;40.10;;;;;;5082814;28;43501;-63
2022/03/06 08:40:23;;;;;;;0.55;0.55;;;18.90;40.10;;;;;;5084047;28;43812;-63
2022/03/06 08:42:50;;;;;;;1.67;0.60;;;18.90;40.20;;;;;;5082259;28;43782;-62
2022/03/06 08:45:24;;;;;;;0.70;0.70;;;18.90;40.10;;;;;;5081179;28;43446;-62
2022/03/06 08:47:51;;;;;;;0.57;0.57;;;18.90;40.10;;;;;;5083940;27;43492;-63
2022/03/06 08:50:19;;;;;;;0.60;0.60;;;19.00;40.30;;;;;;5084231;27;43457;-62
2022/03/06 08:52:46;;;;;;;1.08;0.70;;;19.00;40.30;;;;;;5083229;27;44845;-63
2022/03/06 08:55:14;;;;;;;0.82;0.82;;;19.00;40.20;;;;;;5083457;27;43534;-63
2022/03/06 08:57:41;;;;;;;0.80;0.80;;;19.00;40.20;;;;;;5084085;27;43437;-58
2022/03/06 09:00:14;;;;;;;0.60;0.60;;;19.10;40.30;;;;;;5084121;27;43411;-62
2022/03/06 09:02:42;;;;;;;0.95;0.60;;;19.10;40.40;;;;;;5080582;28;44705;-62
2022/03/06 09:05:09;;;;;;;1.00;0.90;;;19.10;40.40;;;;;;5083808;27;43961;-62
2022/03/06 09:07:37;;;;;;;0.80;0.80;;;19.20;40.30;;;;;;5081235;28;43430;-62
2022/03/06 09:10:05;;;;;;;1.35;0.52;;;19.20;40.30;;;;;;5084377;27;43496;-62
2022/03/06 09:12:38;;;;;;;0.70;0.70;;;19.20;40.20;;;;;;5083746;28;44057;-62
2022/03/06 09:15:07;;;;;;;0.50;0.50;;;19.30;40.30;;;;;;5082511;27;43516;-62
2022/03/06 09:17:34;;;;;;;0.95;0.80;;;19.30;40.10;;;;;;5084087;27;43561;-62
2022/03/06 09:20:03;;;;;;;1.33;0.60;;;19.30;40.20;;;;;;5083403;27;43450;-62
2022/03/06 09:22:30;;;;;;;0.80;0.63;;;19.40;40.10;;;;;;5065514;28;44218;-62
2022/03/06 09:24:57;;;;;;;0.50;0.50;;;19.40;40.20;;;;;;5083311;27;43672;-62
2022/03/06 09:27:25;;;;;;;0.60;0.60;;;19.40;40.20;;;;;;5083569;27;43473;-62
2022/03/06 09:29:52;;;;;;;0.93;0.52;;;19.40;40.20;;;;;;5083593;27;43446;-62
2022/03/06 09:32:20;;;;;;;0.95;0.75;;;19.40;40.10;;;;;;5083343;27;43808;-63
2022/03/06 09:34:47;;;;;;;0.68;0.60;;;19.40;40.10;;;;;;5081836;27;43585;-62
2022/03/06 09:37:15;;;;;;;1.38;0.60;;;19.40;40.10;;;;;;5079399;27;43410;-63
2022/03/06 09:39:42;;;;;;;1.48;0.50;;;19.50;40.20;;;;;;5082365;28;43549;-62
2022/03/06 09:42:09;;;;;;;0.68;0.60;;;19.50;40.00;;;;;;5082722;27;43816;-64
2022/03/06 09:44:37;;;;;;;1.60;0.75;;;19.60;40.00;;;;;;5082842;27;43445;-63
2022/03/06 09:47:06;;;;;;;0.90;0.70;;;19.60;40.10;;;;;;5083547;27;43526;-63
2022/03/06 09:49:33;;;;;;;2.33;0.73;;;19.60;40.00;;;;;;5083437;27;43770;-62
2022/03/06 09:52:02;;;;;;;1.10;0.68;;;19.60;40.00;;;;;;5082957;27;43856;-63
2022/03/06 09:54:30;;;;;;;3.83;0.90;;;19.60;40.00;;;;;;5108489;27;44009;-62
2022/03/06 09:56:57;;;;;;;1.05;0.80;;;19.70;40.20;;;;;;5083468;27;43525;-62
2022/03/06 09:59:25;;;;;;;1.02;0.50;;;19.70;40.00;;;;;;5083102;27;43544;-63
2022/03/06 10:01:52;;;;;;;0.95;0.70;;;19.80;40.10;;;;;;5082435;27;43599;-63
2022/03/06 10:04:29;;;;;;;0.98;0.70;;;19.80;40.10;;;;;;5082925;27;43650;-62
2022/03/06 10:07:14;;;;;;;1.42;0.90;;;19.80;40.00;;;;;;5079606;27;43425;-63
2022/03/06 10:09:46;;;;;;;0.60;0.60;;;19.90;40.00;;;;;;5083195;27;43402;-63
2022/03/06 10:12:29;;;;;;;1.27;0.63;;;19.90;40.10;;;;;;5106188;27;44816;-63
2022/03/06 10:14:59;;;;;;;0.70;0.70;;;19.90;40.10;;;;;;5078243;28;43977;-63
2022/03/06 10:17:29;;;;;;;1.25;0.80;;;19.90;40.10;;;;;;5081515;28;43522;-63
2022/03/06 10:19:59;;;;;;;1.30;0.70;;;19.90;40.20;;;;;;5082923;27;43580;-61
2022/03/06 10:22:32;;;;;;;2.63;1.13;;;19.90;40.30;;;;;;5077465;27;43793;-62
2022/03/06 10:25:08;;;;;;;0.98;0.70;;;20.00;40.10;;;;;;5080053;27;43684;-62
2022/03/06 10:27:57;;;;;;;1.23;0.80;;;20.10;40.00;;;;;;5081575;27;43457;-62
2022/03/06 10:30:27;;;;;;;1.17;0.82;;;20.10;40.00;;;;;;5080796;27;43999;-62
2022/03/06 10:32:57;;;;;;;0.80;0.80;;;20.20;40.10;;;;;;5077814;27;44697;-62
2022/03/06 10:35:30;;;;;;;0.73;0.73;;;20.30;40.10;;;;;;5081273;27;43465;-62
2022/03/06 10:37:58;;;;;;;6.13;0.80;;;20.30;40.00;;;;;;5072590;27;43538;-62
2022/03/06 10:40:34;;;;;;;2.53;1.02;;;20.30;40.00;;;;;;5081928;27;43567;-62
2022/03/06 10:43:34;;;;;;;1.90;0.75;;;20.40;40.00;;;;;;5086145;27;44658;-62
2022/03/06 10:46:16;;;;;;;1.10;1.00;;;20.50;40.00;;;;;;5082200;27;43424;-62
2022/03/06 10:48:56;;;;;;;2.25;0.60;;;20.50;39.90;;;;;;5079424;27;44027;-62
2022/03/06 10:51:25;;;;;;;1.30;0.80;;;20.60;40.00;;;;;;5080678;27;43453;-62
2022/03/06 10:53:54;;;;;;;0.90;0.70;;;20.60;39.90;;;;;;5080988;27;44030;-62
2022/03/06 10:56:22;;;;;;;1.73;0.90;;;20.60;39.90;;;;;;5082269;27;43457;-62
2022/03/06 10:58:49;;;;;;;1.27;0.80;;;20.70;39.90;;;;;;5081711;27;44054;-62
2022/03/06 11:01:28;;;;;;;0.70;0.70;;;20.70;39.90;;;;;;5085264;27;43859;-62
2022/03/06 11:04:01;;;;;;;4.72;0.80;;;20.80;39.70;;;;;;5066298;28;44959;-62
2022/03/06 11:06:31;;;;;;;1.48;1.05;;;20.80;39.60;;;;;;5082397;27;43465;-62
2022/03/06 11:09:00;;;;;;;2.25;0.90;;;20.90;39.70;;;;;;5079864;27;43471;-62
2022/03/06 11:11:28;;;;;;;0.60;0.60;;;20.90;39.70;;;;;;5082662;27;43513;-61
2022/03/06 11:13:56;;;;;;;1.42;0.90;;;21.00;39.70;;;;;;5081726;27;44894;-61
2022/03/06 11:16:23;;;;;;;1.02;0.90;;;21.00;39.60;;;;;;5085997;27;43483;-62
2022/03/06 11:18:53;;;;;;;0.70;0.60;;;21.00;39.60;;;;;;5078312;27;43529;-62
2022/03/06 11:21:24;;;;;;;1.08;0.82;;;21.00;39.60;;;;;;5082400;27;43542;-62
2022/03/06 11:23:54;;;;;;;0.70;0.70;;;21.10;39.60;;;;;;5082514;27;44334;-62
2022/03/06 11:26:54;;;;;;;0.75;0.70;;;21.10;39.60;;;;;;5081926;27;43478;-62
2022/03/06 11:29:48;;;;;;;1.50;0.75;;;21.20;39.60;;;;;;5084495;27;43549;-61
2022/03/06 11:32:31;;;;;;;2.28;0.80;;;21.20;39.60;;;;;;5080515;27;43482;-63
2022/03/06 11:35:09;;;;;;;0.95;0.55;;;21.20;39.50;;;;;;5081638;27;44033;-61
2022/03/06 11:37:55;;;;;;;0.90;0.80;;;21.30;39.60;;;;;;5084993;27;43561;-61
2022/03/06 11:40:45;;;;;;;2.22;0.90;;;21.30;39.60;;;;;;5083810;27;43528;-61
2022/03/06 11:43:35;;;;;;;1.83;0.68;;;21.30;39.60;;;;;;5083062;27;43497;-61
2022/03/06 11:46:38;;;;;;;2.20;1.05;;;21.30;39.60;;;;;;5080969;27;43622;-61
2022/03/06 11:49:06;;;;;;;1.77;0.63;;;21.30;39.60;;;;;;5083008;27;43455;-61
2022/03/06 11:51:39;;;;;;;0.90;0.68;;;21.40;39.60;;;;;;5083940;27;43461;-61
2022/03/06 11:54:10;;;;;;;1.00;0.80;;;21.40;39.60;;;;;;5083552;27;43540;-61
2022/03/06 11:56:45;;;;;;;1.48;0.85;;;21.40;39.60;;;;;;5083280;27;43773;-60
2022/03/06 11:59:25;;;;;;;1.95;0.75;;;21.40;39.50;;;;;;5078528;27;43701;-61
2022/03/06 12:01:54;;;;;;;1.45;0.80;;;21.50;39.50;;;;;;5081786;27;43508;-61
2022/03/06 12:04:29;;;;;;;1.08;0.73;;;21.50;39.50;;;;;;5081781;27;43596;-62
2022/03/06 12:07:00;;;;;;;0.88;0.80;;;21.60;39.50;;;;;;5082753;27;44031;-62
2022/03/06 12:09:33;;;;;;;0.60;0.60;;;21.60;39.50;;;;;;5079719;27;43482;-61
2022/03/06 12:12:04;;;;;;;1.08;0.93;;;21.60;39.40;;;;;;5074919;27;43497;-62
2022/03/06 12:14:36;;;;;;;1.88;0.98;;;21.70;39.40;;;;;;5083525;27;43600;-62
2022/03/06 12:17:04;;;;;;;2.38;0.70;;;21.70;39.40;;;;;;5078636;27;43959;-61
2022/03/06 12:19:53;;;;;;;1.05;0.70;;;21.70;39.30;;;;;;5083077;27;43378;-62
2022/03/06 12:22:33;;;;;;;0.88;0.80;;;21.80;39.30;;;;;;5079457;27;43497;-62
2022/03/06 12:25:04;;;;;;;1.10;1.00;;;21.80;39.30;;;;;;5048913;27;43668;-62
2022/03/06 12:27:32;;;;;;;0.65;0.65;;;21.80;39.20;;;;;;5083106;27;44718;-62
2022/03/06 12:30:04;;;;;;;1.05;0.90;;;21.90;39.30;;;;;;5083578;27;43484;-62
2022/03/06 12:32:36;;;;;;;1.42;0.60;;;21.90;39.90;;;;;;5081832;27;43462;-62
2022/03/06 12:35:15;;;;;;;0.70;0.60;;;22.00;39.20;;;;;;5080368;27;43535;-62
2022/03/06 12:37:49;;;;;;;1.10;0.98;;;22.00;39.20;;;;;;5080706;27;44036;-61
2022/03/06 12:40:19;;;;;;;1.45;0.73;;;22.10;39.20;;;;;;5078415;27;43601;-62
2022/03/06 12:42:51;;;;;;;0.95;0.52;;;22.10;39.20;;;;;;5084522;27;43480;-61
2022/03/06 12:45:19;;;;;;;1.40;0.88;;;22.10;39.20;;;;;;5081307;27;43420;-62
2022/03/06 12:47:47;;;;;;;0.93;0.50;;;22.10;39.10;;;;;;5083381;27;43960;-61
2022/03/06 12:50:17;;;;;;;0.52;0.52;;;22.10;39.10;;;;;;5073861;27;44822;-61
2022/03/06 12:52:46;;;;;;;0.77;0.67;;;22.20;39.20;;;;;;5083569;27;43497;-62
2022/03/06 12:55:16;;;;;;;1.48;0.82;;;22.20;39.10;;;;;;5082733;27;43583;-62
2022/03/06 12:57:46;;;;;;;0.75;0.43;;;22.20;39.10;;;;;;5080401;27;44785;-62
2022/03/06 13:00:27;;;;;;;1.60;0.60;;;22.20;39.10;;;;;;5079421;27;43537;-61